Time;durP1;ratioP1;P1;durP2;ratioP2;P2;SDS_P1;SDS_P2;PMS_P1;PMS_P2;Temp;Humidity;BMP_temperature;BMP_pressure;BME280_temperature;BME280_humidity;BME280_pressure;Samples;Min_cycle;Max_cycle;Signal;HPM_P1;HPM_P2
2021/10/30 00:00:30;;;;;;;3.72;3.30;;;13.70;97.10;;;;;;4938133;29;20042;-82
2021/10/30 00:02:56;;;;;;;5.93;3.88;;;13.70;97.10;;;;;;4911217;28;20078;-83
2021/10/30 00:05:24;;;;;;;8.27;4.32;;;13.70;97.10;;;;;;4939998;28;20115;-83
2021/10/30 00:07:50;;;;;;;6.93;4.38;;;13.70;97.10;;;;;;4942992;28;20043;-83
2021/10/30 00:10:15;;;;;;;8.73;4.32;;;13.60;97.20;;;;;;4907634;29;20510;-82
2021/10/30 00:12:41;;;;;;;6.35;4.40;;;13.60;97.10;;;;;;4923106;29;20027;-83
2021/10/30 00:15:07;;;;;;;5.00;3.40;;;13.60;97.10;;;;;;4894885;29;20461;-83
2021/10/30 00:17:33;;;;;;;7.40;3.92;;;13.60;97.00;;;;;;4899939;29;20029;-83
2021/10/30 00:19:58;;;;;;;7.03;4.03;;;13.60;97.00;;;;;;4895109;29;20627;-83
2021/10/30 00:22:24;;;;;;;5.63;3.95;;;13.60;97.00;;;;;;4911647;29;20115;-82
2021/10/30 00:24:50;;;;;;;7.63;5.32;;;13.60;97.00;;;;;;4907461;29;20040;-83
2021/10/30 00:27:16;;;;;;;6.60;5.20;;;13.60;97.00;;;;;;4907591;29;20036;-82
2021/10/30 00:29:41;;;;;;;8.68;4.80;;;13.60;97.00;;;;;;4926161;29;20042;-82
2021/10/30 00:32:07;;;;;;;9.10;5.18;;;13.50;96.90;;;;;;4927000;29;20567;-82
2021/10/30 00:34:33;;;;;;;5.28;3.78;;;13.50;96.80;;;;;;4941408;28;20088;-83
2021/10/30 00:36:58;;;;;;;8.93;4.97;;;13.60;97.00;;;;;;4916523;28;20039;-82
2021/10/30 00:39:24;;;;;;;5.82;3.75;;;13.60;96.80;;;;;;4942535;28;20119;-83
2021/10/30 00:41:50;;;;;;;6.93;4.90;;;13.50;96.80;;;;;;4938964;29;20036;-83
2021/10/30 00:44:16;;;;;;;7.72;4.75;;;13.60;96.70;;;;;;4943354;28;20047;-83
2021/10/30 00:46:43;;;;;;;9.65;5.38;;;13.50;96.80;;;;;;4928254;29;20035;-82
2021/10/30 00:49:09;;;;;;;5.72;4.28;;;13.50;96.70;;;;;;4941979;29;20044;-82
2021/10/30 00:51:36;;;;;;;11.70;4.30;;;13.40;96.70;;;;;;4916768;29;20488;-82
2021/10/30 00:54:02;;;;;;;9.85;5.35;;;13.50;96.70;;;;;;4897751;28;20063;-82
2021/10/30 00:56:28;;;;;;;8.35;4.53;;;13.40;96.40;;;;;;4911935;29;20036;-82
2021/10/30 00:58:53;;;;;;;7.30;4.78;;;13.40;96.60;;;;;;4936107;28;20059;-83
2021/10/30 01:01:19;;;;;;;8.07;3.92;;;13.30;96.60;;;;;;4925924;29;20028;-82
2021/10/30 01:03:44;;;;;;;6.63;4.57;;;13.40;96.70;;;;;;4926914;29;20059;-83
2021/10/30 01:06:10;;;;;;;10.10;5.45;;;13.40;96.50;;;;;;4913218;29;20127;-82
2021/10/30 01:08:35;;;;;;;7.07;4.65;;;13.30;96.70;;;;;;4925369;29;20036;-83
2021/10/30 01:11:01;;;;;;;5.55;4.25;;;13.20;96.60;;;;;;4894675;29;20060;-82
2021/10/30 01:13:27;;;;;;;10.23;5.13;;;13.20;96.60;;;;;;4913258;29;20090;-83
2021/10/30 01:15:52;;;;;;;7.40;4.70;;;13.20;96.70;;;;;;4913067;29;20180;-83
2021/10/30 01:18:18;;;;;;;9.48;4.65;;;13.10;96.60;;;;;;4914628;29;20031;-83
2021/10/30 01:20:43;;;;;;;6.18;4.20;;;13.10;96.80;;;;;;4928657;29;20028;-82
2021/10/30 01:23:09;;;;;;;8.57;4.38;;;13.10;96.70;;;;;;4929294;29;20107;-82
2021/10/30 01:25:34;;;;;;;6.43;4.60;;;13.00;96.80;;;;;;4927550;29;20024;-83
2021/10/30 01:28:01;;;;;;;8.82;4.65;;;13.00;96.60;;;;;;4925691;29;20044;-82
2021/10/30 01:30:27;;;;;;;6.70;4.43;;;13.00;96.70;;;;;;4941092;28;20039;-82
2021/10/30 01:32:57;;;;;;;7.75;4.20;;;12.90;96.60;;;;;;4942652;28;20024;-82
2021/10/30 01:35:41;;;;;;;7.97;4.50;;;12.90;96.90;;;;;;4894084;29;20095;-82
2021/10/30 01:38:09;;;;;;;10.90;4.57;;;12.80;96.80;;;;;;4920831;29;20032;-81
2021/10/30 01:41:10;;;;;;;8.82;5.28;;;12.80;96.90;;;;;;4930782;28;20020;-82
2021/10/30 01:43:36;;;;;;;5.68;4.68;;;12.80;97.20;;;;;;4923457;29;20148;-82
2021/10/30 01:46:02;;;;;;;7.30;4.72;;;12.60;96.70;;;;;;4897473;28;20122;-82
2021/10/30 01:48:32;;;;;;;8.13;4.43;;;12.70;97.00;;;;;;4912923;29;20024;-82
2021/10/30 01:50:57;;;;;;;8.15;4.68;;;12.70;97.00;;;;;;4924358;29;20043;-82
2021/10/30 01:53:23;;;;;;;8.85;5.03;;;12.70;96.80;;;;;;4911412;29;20544;-81
2021/10/30 01:55:49;;;;;;;8.23;4.55;;;12.70;97.00;;;;;;4928180;29;20028;-82
2021/10/30 01:58:15;;;;;;;8.45;4.28;;;12.70;97.00;;;;;;4911601;29;20160;-81
2021/10/30 02:00:41;;;;;;;7.43;4.50;;;12.60;97.10;;;;;;4927926;29;20032;-82
2021/10/30 02:03:07;;;;;;;8.00;4.53;;;12.70;97.10;;;;;;4910778;29;20031;-82
2021/10/30 02:05:32;;;;;;;5.88;3.00;;;12.70;97.10;;;;;;4938177;29;20026;-82
2021/10/30 02:07:58;;;;;;;5.55;4.15;;;12.70;97.10;;;;;;4880390;29;1087718;-81
2021/10/30 02:10:24;;;;;;;9.10;4.30;;;12.60;97.00;;;;;;4940096;28;20036;-82
2021/10/30 02:12:49;;;;;;;7.63;4.30;;;12.60;97.20;;;;;;4944340;28;20028;-82
2021/10/30 02:15:15;;;;;;;9.98;4.05;;;12.60;97.10;;;;;;4894740;29;20639;-82
2021/10/30 02:17:41;;;;;;;7.03;4.07;;;12.60;97.10;;;;;;4927993;29;20046;-82
2021/10/30 02:20:07;;;;;;;5.57;3.92;;;12.60;97.00;;;;;;4941075;29;20052;-82
2021/10/30 02:22:33;;;;;;;7.07;4.05;;;12.60;97.30;;;;;;4942458;28;20035;-82
2021/10/30 02:24:58;;;;;;;7.25;4.43;;;12.60;97.30;;;;;;4896921;28;20028;-81
2021/10/30 02:27:24;;;;;;;6.18;4.32;;;12.60;97.10;;;;;;4926708;29;20032;-81
2021/10/30 02:29:50;;;;;;;9.45;4.53;;;12.70;97.00;;;;;;4912740;29;20046;-81
2021/10/30 02:32:15;;;;;;;7.63;3.90;;;12.60;96.90;;;;;;4910622;29;20776;-81
2021/10/30 02:34:41;;;;;;;6.78;4.43;;;12.70;97.10;;;;;;4912293;29;20035;-81
2021/10/30 02:37:07;;;;;;;7.63;4.00;;;12.60;97.10;;;;;;4914653;29;20032;-81
2021/10/30 02:39:33;;;;;;;5.20;3.80;;;12.50;96.90;;;;;;4926346;29;20048;-82
2021/10/30 02:41:58;;;;;;;7.00;3.70;;;12.60;97.10;;;;;;4897824;29;20138;-82
2021/10/30 02:44:24;;;;;;;5.53;3.83;;;12.60;97.00;;;;;;4942244;28;20120;-81
2021/10/30 02:46:50;;;;;;;7.28;4.15;;;12.60;97.10;;;;;;4929103;29;20031;-81
2021/10/30 02:49:16;;;;;;;7.32;3.67;;;12.60;97.10;;;;;;4910520;29;20491;-81
2021/10/30 02:51:41;;;;;;;6.57;3.70;;;12.60;97.10;;;;;;4927690;29;20032;-81
2021/10/30 02:54:07;;;;;;;9.15;4.20;;;12.60;97.10;;;;;;4898410;29;20047;-82
2021/10/30 02:56:32;;;;;;;7.97;3.83;;;12.60;97.20;;;;;;4926598;29;20485;-81
2021/10/30 02:58:58;;;;;;;7.07;4.38;;;12.60;97.10;;;;;;4911245;29;20083;-81
2021/10/30 03:01:25;;;;;;;7.10;3.80;;;12.60;97.00;;;;;;4940943;28;20137;-82
2021/10/30 03:03:51;;;;;;;6.47;3.80;;;12.50;97.10;;;;;;4940198;28;20673;-81
2021/10/30 03:06:16;;;;;;;6.88;3.72;;;12.50;97.10;;;;;;4896137;28;20098;-81
2021/10/30 03:08:42;;;;;;;5.20;3.78;;;12.50;97.10;;;;;;4941257;28;20043;-81
2021/10/30 03:11:07;;;;;;;6.18;3.97;;;12.50;97.00;;;;;;4927283;29;20064;-82
2021/10/30 03:13:33;;;;;;;6.13;3.80;;;12.50;97.00;;;;;;4924897;29;20032;-81
2021/10/30 03:15:59;;;;;;;6.88;3.50;;;12.50;97.00;;;;;;4911269;29;20024;-81
2021/10/30 03:18:24;;;;;;;6.63;3.67;;;12.50;97.00;;;;;;4941147;28;20452;-81
2021/10/30 03:20:50;;;;;;;5.15;3.65;;;12.60;97.00;;;;;;4945390;28;20481;-80
2021/10/30 03:23:15;;;;;;;7.40;4.10;;;12.50;97.00;;;;;;4936614;28;20405;-81
2021/10/30 03:25:41;;;;;;;4.75;4.20;;;12.50;97.10;;;;;;4924426;29;20401;-81
2021/10/30 03:28:07;;;;;;;6.88;3.85;;;12.50;97.00;;;;;;4913451;29;20032;-81
2021/10/30 03:30:32;;;;;;;6.72;3.25;;;12.50;96.90;;;;;;4912715;29;20507;-81
2021/10/30 03:32:58;;;;;;;6.80;4.28;;;12.50;97.00;;;;;;4900282;29;20032;-81
2021/10/30 03:35:24;;;;;;;6.50;4.03;;;12.40;96.90;;;;;;4913203;29;20123;-81
2021/10/30 03:37:50;;;;;;;7.90;4.07;;;12.50;96.90;;;;;;4925344;29;20173;-81
2021/10/30 03:40:15;;;;;;;4.45;3.53;;;12.40;96.80;;;;;;4907189;29;20063;-81
2021/10/30 03:42:41;;;;;;;5.20;3.35;;;12.40;97.00;;;;;;4938843;29;20510;-81
2021/10/30 03:45:07;;;;;;;5.03;3.97;;;12.50;97.00;;;;;;4909451;29;20047;-81
2021/10/30 03:47:32;;;;;;;5.55;4.25;;;12.50;96.90;;;;;;4940885;28;20032;-82
2021/10/30 03:49:58;;;;;;;5.75;3.50;;;12.50;96.90;;;;;;4895977;29;20481;-81
2021/10/30 03:52:24;;;;;;;8.55;3.42;;;12.40;97.00;;;;;;4939102;28;20039;-81
2021/10/30 03:54:50;;;;;;;5.60;3.30;;;12.50;96.90;;;;;;4927906;28;20036;-81
2021/10/30 03:57:15;;;;;;;5.43;3.67;;;12.50;97.00;;;;;;4941044;28;20034;-81
2021/10/30 03:59:41;;;;;;;5.40;3.80;;;12.50;97.00;;;;;;4904186;29;20133;-81
2021/10/30 04:02:06;;;;;;;5.72;3.40;;;12.50;96.90;;;;;;4910647;29;20040;-81
2021/10/30 04:04:33;;;;;;;4.65;3.00;;;12.40;97.00;;;;;;4907554;29;20411;-82
2021/10/30 04:06:58;;;;;;;5.55;3.63;;;12.50;97.10;;;;;;4900206;29;20050;-81
2021/10/30 04:09:24;;;;;;;9.32;3.17;;;12.60;97.00;;;;;;4929900;29;20036;-81
2021/10/30 04:11:53;;;;;;;7.75;3.60;;;12.50;97.20;;;;;;4928260;29;20401;-81
2021/10/30 04:14:18;;;;;;;7.47;3.42;;;12.60;97.20;;;;;;4931668;29;20067;-81
2021/10/30 04:16:44;;;;;;;5.68;2.42;;;12.60;97.40;;;;;;4928776;29;20075;-81
2021/10/30 04:19:10;;;;;;;4.75;3.42;;;12.60;97.50;;;;;;4917222;29;20036;-82
2021/10/30 04:21:35;;;;;;;6.32;3.88;;;12.60;97.80;;;;;;4914288;29;20040;-81
2021/10/30 04:24:01;;;;;;;5.05;3.90;;;12.50;97.90;;;;;;4914768;29;20492;-81
2021/10/30 04:26:27;;;;;;;4.07;2.90;;;12.50;98.10;;;;;;4933266;29;20067;-81
2021/10/30 04:28:53;;;;;;;7.25;4.05;;;12.50;98.30;;;;;;4942381;28;20432;-81
2021/10/30 04:31:21;;;;;;;5.35;3.90;;;12.50;98.40;;;;;;4914085;29;20044;-81
2021/10/30 04:33:46;;;;;;;5.60;3.85;;;12.40;98.80;;;;;;4941014;28;20076;-81
2021/10/30 04:36:16;;;;;;;5.50;4.10;;;12.40;98.90;;;;;;4916360;29;20028;-81
2021/10/30 04:38:42;;;;;;;6.40;4.32;;;12.40;99.10;;;;;;4913619;29;20028;-81
2021/10/30 04:41:07;;;;;;;7.32;4.53;;;12.30;99.10;;;;;;4917678;29;20032;-82
2021/10/30 04:43:33;;;;;;;7.07;5.15;;;12.30;99.90;;;;;;4943109;28;20695;-82
2021/10/30 04:45:58;;;;;;;8.23;3.72;;;12.30;99.70;;;;;;4913698;29;20032;-82
2021/10/30 04:48:24;;;;;;;6.78;3.92;;;12.30;99.80;;;;;;4923730;29;20032;-82
2021/10/30 04:50:51;;;;;;;6.28;4.13;;;12.20;99.70;;;;;;4943668;28;20981;-80
2021/10/30 04:53:16;;;;;;;8.88;4.47;;;12.20;99.90;;;;;;4929916;29;20068;-81
2021/10/30 04:55:42;;;;;;;7.43;5.05;;;12.20;99.90;;;;;;4912929;29;20058;-81
2021/10/30 04:58:07;;;;;;;5.70;4.47;;;12.10;99.90;;;;;;4899500;29;20059;-82
2021/10/30 05:00:33;;;;;;;7.60;5.15;;;12.10;99.90;;;;;;4940116;28;20079;-82
2021/10/30 05:02:58;;;;;;;8.13;4.50;;;12.00;99.90;;;;;;4914657;29;20029;-82
2021/10/30 05:05:24;;;;;;;6.25;3.92;;;12.00;99.90;;;;;;4929268;29;20120;-82
2021/10/30 05:07:50;;;;;;;7.53;4.35;;;12.00;99.90;;;;;;4913441;29;20064;-82
2021/10/30 05:10:15;;;;;;;6.00;4.70;;;12.00;99.90;;;;;;4942257;28;20035;-82
2021/10/30 05:12:41;;;;;;;7.45;4.55;;;11.90;99.90;;;;;;4913418;29;20637;-83
2021/10/30 05:15:07;;;;;;;8.70;5.07;;;11.90;99.90;;;;;;4892466;29;20047;-82
2021/10/30 05:17:32;;;;;;;8.07;3.97;;;11.90;99.90;;;;;;4926865;29;20094;-82
2021/10/30 05:19:58;;;;;;;8.63;5.00;;;11.90;99.90;;;;;;4894449;29;20090;-83
2021/10/30 05:22:23;;;;;;;7.68;4.70;;;11.90;99.90;;;;;;4914188;28;20035;-83
2021/10/30 05:24:49;;;;;;;7.53;4.57;;;11.90;99.90;;;;;;4914191;28;20043;-83
2021/10/30 05:27:16;;;;;;;8.45;5.22;;;11.90;99.90;;;;;;4931032;29;20032;-83
2021/10/30 05:29:41;;;;;;;4.93;4.05;;;11.80;99.90;;;;;;4930171;29;20040;-83
2021/10/30 05:32:07;;;;;;;11.40;5.72;;;11.80;99.90;;;;;;4907869;28;20620;-83
2021/10/30 05:34:36;;;;;;;8.25;5.10;;;11.80;99.90;;;;;;4921124;29;20077;-83
2021/10/30 05:37:01;;;;;;;6.70;4.22;;;11.70;99.90;;;;;;4913872;29;20029;-83
2021/10/30 05:39:27;;;;;;;7.15;4.78;;;11.70;99.90;;;;;;4946973;28;20042;-83
2021/10/30 05:41:52;;;;;;;8.48;4.80;;;11.70;99.90;;;;;;4927353;29;20035;-83
2021/10/30 05:44:18;;;;;;;8.80;5.40;;;11.70;99.90;;;;;;4929871;29;20043;-82
2021/10/30 05:46:44;;;;;;;6.28;4.22;;;11.70;99.90;;;;;;4928123;28;20035;-82
2021/10/30 05:49:11;;;;;;;10.95;5.47;;;11.70;99.90;;;;;;4929573;29;20036;-82
2021/10/30 05:51:36;;;;;;;6.68;4.75;;;11.60;99.90;;;;;;4904113;29;20577;-82
2021/10/30 05:54:02;;;;;;;7.20;4.70;;;11.60;99.90;;;;;;4899793;29;20523;-81
2021/10/30 05:56:27;;;;;;;8.73;5.30;;;11.60;99.90;;;;;;4911465;29;20051;-81
2021/10/30 05:58:53;;;;;;;10.95;4.50;;;11.60;99.90;;;;;;4941078;29;20115;-82
2021/10/30 06:01:19;;;;;;;9.70;5.15;;;11.60;99.90;;;;;;4926545;29;20442;-82
2021/10/30 06:03:44;;;;;;;9.65;4.93;;;11.60;99.90;;;;;;4919110;29;20028;-81
2021/10/30 06:06:10;;;;;;;6.90;4.93;;;11.50;99.90;;;;;;4930477;29;20036;-82
2021/10/30 06:08:35;;;;;;;8.82;4.90;;;11.50;99.90;;;;;;4912065;29;20031;-82
2021/10/30 06:11:01;;;;;;;9.02;5.35;;;11.50;99.90;;;;;;4913895;29;20099;-82
2021/10/30 06:13:27;;;;;;;7.43;4.75;;;11.50;99.90;;;;;;4946958;28;20103;-82
2021/10/30 06:15:52;;;;;;;6.55;4.95;;;11.60;99.90;;;;;;4915508;29;20032;-82
2021/10/30 06:18:18;;;;;;;7.30;5.15;;;11.60;99.90;;;;;;4908539;29;20032;-82
2021/10/30 06:20:44;;;;;;;7.28;4.20;;;11.50;99.90;;;;;;4928895;29;20036;-82
2021/10/30 06:23:11;;;;;;;6.15;4.80;;;11.50;99.90;;;;;;4926808;29;20035;-82
2021/10/30 06:25:38;;;;;;;8.98;5.40;;;11.50;99.90;;;;;;4940646;28;20051;-82
2021/10/30 06:28:04;;;;;;;7.55;5.18;;;11.50;99.90;;;;;;4929216;29;20042;-82
2021/10/30 06:30:30;;;;;;;6.75;4.93;;;11.50;99.90;;;;;;4924963;29;20036;-82
2021/10/30 06:32:55;;;;;;;5.85;4.68;;;11.50;99.90;;;;;;4940172;28;20039;-85
2021/10/30 06:35:21;;;;;;;8.15;4.80;;;11.50;99.90;;;;;;4926881;29;20051;-82
2021/10/30 06:37:46;;;;;;;9.43;4.75;;;11.50;99.90;;;;;;4926291;28;20036;-82
2021/10/30 06:40:13;;;;;;;10.60;5.15;;;11.50;99.90;;;;;;4926312;29;20024;-82
2021/10/30 06:42:39;;;;;;;6.47;4.60;;;11.50;99.90;;;;;;4909739;29;20545;-82
2021/10/30 06:45:04;;;;;;;7.20;4.28;;;11.50;99.90;;;;;;4898541;29;20036;-82
2021/10/30 06:47:31;;;;;;;6.75;4.82;;;11.50;99.90;;;;;;4939615;28;20123;-82
2021/10/30 06:49:59;;;;;;;7.20;4.63;;;11.50;99.90;;;;;;4942521;28;20538;-82
2021/10/30 06:52:25;;;;;;;5.32;4.30;;;11.50;99.90;;;;;;4928541;29;20046;-82
2021/10/30 06:54:50;;;;;;;7.25;4.93;;;11.50;99.90;;;;;;4924954;29;20408;-82
2021/10/30 06:57:16;;;;;;;6.90;4.18;;;11.50;99.90;;;;;;4915799;29;20028;-82
2021/10/30 06:59:42;;;;;;;8.80;4.82;;;11.50;99.90;;;;;;4933855;29;20034;-82
2021/10/30 07:02:08;;;;;;;8.30;5.80;;;11.50;99.90;;;;;;4909711;29;20043;-81
2021/10/30 07:04:34;;;;;;;5.65;4.32;;;11.50;99.90;;;;;;4895972;29;20039;-85
2021/10/30 07:07:00;;;;;;;6.70;4.38;;;11.50;99.90;;;;;;4914873;29;20039;-84
2021/10/30 07:09:26;;;;;;;6.20;4.68;;;11.50;99.90;;;;;;4939636;28;20058;-81
2021/10/30 07:11:51;;;;;;;9.98;5.07;;;11.50;99.90;;;;;;4941405;29;20435;-82
2021/10/30 07:14:18;;;;;;;7.82;5.38;;;11.50;99.90;;;;;;4938152;28;20512;-84
2021/10/30 07:16:44;;;;;;;7.07;4.97;;;11.50;99.90;;;;;;4912976;29;20027;-84
2021/10/30 07:19:09;;;;;;;8.63;4.30;;;11.40;99.90;;;;;;4913721;29;20131;-82
2021/10/30 07:21:35;;;;;;;8.07;4.53;;;11.40;99.90;;;;;;4909964;29;20515;-82
2021/10/30 07:24:02;;;;;;;8.02;5.15;;;11.40;99.90;;;;;;4930532;28;20043;-82
2021/10/30 07:26:27;;;;;;;8.13;4.70;;;11.40;99.90;;;;;;4939091;29;20032;-81
2021/10/30 07:28:53;;;;;;;8.73;5.70;;;11.40;99.90;;;;;;4940138;28;20507;-83
2021/10/30 07:31:18;;;;;;;7.18;4.68;;;11.40;99.90;;;;;;4911857;29;20032;-82
2021/10/30 07:33:44;;;;;;;6.80;5.00;;;11.40;99.90;;;;;;4927205;28;20048;-81
2021/10/30 07:36:09;;;;;;;6.45;4.65;;;11.40;99.90;;;;;;4896867;29;20090;-82
2021/10/30 07:38:36;;;;;;;5.95;4.70;;;11.50;99.90;;;;;;4910685;29;20028;-82
2021/10/30 07:41:01;;;;;;;6.38;4.88;;;11.50;99.90;;;;;;4897850;29;20492;-81
2021/10/30 07:43:27;;;;;;;4.97;4.15;;;11.40;99.90;;;;;;4915395;29;20143;-82
2021/10/30 07:45:52;;;;;;;7.85;4.55;;;11.50;99.90;;;;;;4937205;28;20028;-81
2021/10/30 07:48:18;;;;;;;7.15;4.70;;;11.50;99.90;;;;;;4918057;29;20032;-83
2021/10/30 07:50:44;;;;;;;5.82;4.05;;;11.50;99.90;;;;;;4936011;29;20538;-83
2021/10/30 07:53:09;;;;;;;5.88;4.82;;;11.40;99.90;;;;;;4884001;29;20032;-83
2021/10/30 07:55:48;;;;;;;7.47;4.78;;;11.40;99.90;;;;;;4924363;29;20075;-83
2021/10/30 07:58:14;;;;;;;6.57;5.05;;;11.50;99.90;;;;;;4915501;28;20040;-83
2021/10/30 08:00:42;;;;;;;7.63;5.55;;;11.50;99.90;;;;;;4932652;29;20163;-83
2021/10/30 08:03:08;;;;;;;8.90;5.53;;;11.50;99.90;;;;;;4894650;29;20031;-84
2021/10/30 08:05:34;;;;;;;7.25;4.32;;;11.50;99.90;;;;;;4900541;29;20047;-83
2021/10/30 08:07:59;;;;;;;5.20;3.97;;;11.50;99.90;;;;;;4931237;28;20047;-83
2021/10/30 08:10:27;;;;;;;8.07;3.70;;;11.60;99.90;;;;;;4931625;29;20052;-83
2021/10/30 08:12:54;;;;;;;6.60;4.45;;;11.70;99.90;;;;;;4927724;29;20035;-83
2021/10/30 08:15:20;;;;;;;6.95;4.22;;;11.60;99.90;;;;;;4913671;29;20040;-83
2021/10/30 08:17:45;;;;;;;8.32;4.47;;;11.70;99.90;;;;;;4913442;29;20094;-83
2021/10/30 08:20:11;;;;;;;7.78;5.80;;;11.60;99.90;;;;;;4919135;29;20122;-83
2021/10/30 08:22:36;;;;;;;8.20;4.30;;;11.70;99.90;;;;;;4929196;29;20870;-83
2021/10/30 08:25:02;;;;;;;7.18;4.03;;;11.70;99.90;;;;;;4946276;28;20066;-82
2021/10/30 08:27:28;;;;;;;5.75;4.07;;;11.70;99.90;;;;;;4933483;29;20496;-82
2021/10/30 08:29:54;;;;;;;6.05;4.70;;;11.60;99.90;;;;;;4910266;29;20040;-82
2021/10/30 08:32:19;;;;;;;10.68;5.20;;;11.80;99.90;;;;;;4915768;29;20028;-83
2021/10/30 08:34:45;;;;;;;6.45;3.85;;;11.70;99.90;;;;;;4928090;29;20110;-83
2021/10/30 08:37:10;;;;;;;9.43;4.47;;;11.80;99.90;;;;;;4901009;29;20043;-82
2021/10/30 08:39:36;;;;;;;7.70;5.30;;;11.80;99.90;;;;;;4911978;29;20046;-83
2021/10/30 08:42:03;;;;;;;7.65;4.18;;;11.80;99.90;;;;;;4926407;29;20229;-82
2021/10/30 08:44:29;;;;;;;9.98;4.68;;;11.80;99.90;;;;;;4939773;28;20035;-83
2021/10/30 08:46:55;;;;;;;5.57;4.13;;;11.80;99.90;;;;;;4947074;28;20039;-83
2021/10/30 08:49:21;;;;;;;4.65;3.22;;;11.90;99.90;;;;;;4931531;29;20042;-82
2021/10/30 08:51:47;;;;;;;7.00;3.60;;;11.90;99.90;;;;;;4922242;29;20063;-85
2021/10/30 08:54:13;;;;;;;6.70;4.47;;;11.90;99.90;;;;;;4918658;29;20441;-83
2021/10/30 08:56:42;;;;;;;4.53;3.08;;;11.90;99.90;;;;;;4935346;29;20119;-83
2021/10/30 08:59:07;;;;;;;6.55;4.60;;;12.00;99.90;;;;;;4914472;29;20040;-84
2021/10/30 09:01:47;;;;;;;9.52;4.13;;;11.90;99.90;;;;;;4927654;29;20038;-83
2021/10/30 09:04:14;;;;;;;5.97;3.70;;;12.00;99.90;;;;;;4914720;29;20043;-83
2021/10/30 09:06:43;;;;;;;5.18;3.50;;;12.10;99.90;;;;;;4925831;29;20067;-84
2021/10/30 09:09:13;;;;;;;5.93;3.72;;;12.10;99.90;;;;;;4917423;29;20039;-84
2021/10/30 09:11:41;;;;;;;9.20;3.28;;;12.10;99.90;;;;;;4932418;29;20028;-82
2021/10/30 09:14:16;;;;;;;6.20;3.80;;;12.10;99.90;;;;;;4915785;29;20040;-84
2021/10/30 09:16:43;;;;;;;7.50;4.28;;;12.10;99.90;;;;;;4944106;28;20036;-83
2021/10/30 09:19:10;;;;;;;9.60;4.03;;;12.20;99.90;;;;;;4913596;29;20035;-83
2021/10/30 09:21:36;;;;;;;5.60;4.07;;;12.20;99.90;;;;;;4938999;29;20038;-83
2021/10/30 09:24:07;;;;;;;4.13;3.10;;;12.20;99.90;;;;;;4912890;29;20028;-83
2021/10/30 09:26:35;;;;;;;5.88;3.63;;;12.20;99.90;;;;;;4915048;29;21209;-85
2021/10/30 09:29:12;;;;;;;4.07;3.45;;;12.30;99.90;;;;;;4914241;29;20033;-85
2021/10/30 09:31:37;;;;;;;7.13;3.92;;;12.30;99.90;;;;;;4916532;29;20035;-84
2021/10/30 09:34:07;;;;;;;4.72;3.38;;;12.30;99.90;;;;;;4901611;29;20054;-84
2021/10/30 09:36:34;;;;;;;5.28;3.35;;;12.30;99.90;;;;;;4943580;29;20388;-84
2021/10/30 09:39:05;;;;;;;6.30;3.83;;;12.30;99.90;;;;;;4897829;29;20027;-84
2021/10/30 09:41:37;;;;;;;6.25;3.85;;;12.30;99.90;;;;;;4927617;29;20259;-85
2021/10/30 09:44:13;;;;;;;5.72;4.13;;;12.40;99.90;;;;;;4931527;28;20044;-84
2021/10/30 09:46:44;;;;;;;5.53;3.30;;;12.40;99.90;;;;;;4944358;28;20511;-83
2021/10/30 09:49:15;;;;;;;4.47;3.35;;;12.40;99.90;;;;;;4946076;28;20118;-84
2021/10/30 09:52:04;;;;;;;5.22;4.07;;;12.50;99.90;;;;;;4914645;29;20551;-84
2021/10/30 09:54:33;;;;;;;7.82;3.70;;;12.50;99.90;;;;;;4938327;28;20579;-83
2021/10/30 09:56:58;;;;;;;5.43;3.78;;;12.60;99.90;;;;;;4930346;28;20032;-84
2021/10/30 09:59:25;;;;;;;5.57;3.15;;;12.60;99.90;;;;;;4929640;29;20040;-84
2021/10/30 10:01:50;;;;;;;6.28;3.88;;;12.70;99.90;;;;;;4929109;29;20057;-84
2021/10/30 10:04:17;;;;;;;5.50;4.05;;;12.70;99.90;;;;;;4945956;28;20040;-85
2021/10/30 10:06:44;;;;;;;6.85;4.57;;;12.70;99.90;;;;;;4893056;29;20048;-84
2021/10/30 10:09:10;;;;;;;6.38;4.40;;;12.70;99.90;;;;;;4918503;29;20086;-84
2021/10/30 10:11:36;;;;;;;5.25;3.38;;;12.70;99.90;;;;;;4896122;29;20054;-84
2021/10/30 10:14:03;;;;;;;5.00;3.58;;;12.70;99.90;;;;;;4897119;29;20036;-84
2021/10/30 10:16:29;;;;;;;9.02;4.00;;;12.70;99.90;;;;;;4940879;28;20190;-84
2021/10/30 10:18:55;;;;;;;8.38;3.78;;;12.70;99.90;;;;;;4927380;29;20032;-84
2021/10/30 10:21:30;;;;;;;5.75;4.63;;;12.70;99.90;;;;;;4910583;29;20032;-85
2021/10/30 10:23:56;;;;;;;7.28;4.50;;;12.80;99.90;;;;;;4909080;29;20704;-83
2021/10/30 10:26:46;;;;;;;7.53;3.80;;;12.80;99.90;;;;;;4927938;29;20111;-84
2021/10/30 10:29:28;;;;;;;8.43;4.32;;;12.70;99.90;;;;;;4926922;29;20496;-83
2021/10/30 10:31:54;;;;;;;6.57;3.67;;;12.80;99.90;;;;;;4912311;29;20488;-85
2021/10/30 10:34:23;;;;;;;5.65;4.68;;;12.70;99.90;;;;;;4942355;28;20063;-84
2021/10/30 10:37:09;;;;;;;7.40;4.57;;;12.80;99.90;;;;;;4925009;29;20031;-85
2021/10/30 10:39:34;;;;;;;7.93;4.67;;;12.80;99.90;;;;;;4931420;29;20046;-85
2021/10/30 10:42:00;;;;;;;6.15;4.00;;;12.80;99.90;;;;;;4913002;29;20032;-85
2021/10/30 10:44:26;;;;;;;8.80;5.78;;;12.70;99.90;;;;;;4908746;29;20036;-85
2021/10/30 10:46:54;;;;;;;6.85;4.53;;;12.80;99.90;;;;;;4930358;28;20031;-87
2021/10/30 10:49:22;;;;;;;10.77;6.50;;;12.80;99.90;;;;;;4919639;29;20051;-84
2021/10/30 10:52:15;;;;;;;5.97;4.50;;;12.70;99.90;;;;;;4927453;29;20032;-84
2021/10/30 10:54:56;;;;;;;7.47;5.00;;;12.70;99.90;;;;;;4930687;29;20035;-84
2021/10/30 10:57:31;;;;;;;7.43;4.88;;;12.70;99.90;;;;;;4926946;28;20114;-84
2021/10/30 11:00:06;;;;;;;7.47;4.57;;;12.70;99.90;;;;;;4940592;28;20500;-83
2021/10/30 11:02:33;;;;;;;7.50;4.50;;;12.60;99.90;;;;;;4926796;29;20038;-84
2021/10/30 11:05:08;;;;;;;7.38;4.50;;;12.70;99.90;;;;;;4922023;29;20036;-84
2021/10/30 11:07:44;;;;;;;8.30;4.18;;;12.60;99.90;;;;;;4945820;28;20859;-84
2021/10/30 11:10:17;;;;;;;6.60;4.25;;;12.50;99.90;;;;;;4913346;29;20059;-84
2021/10/30 11:12:43;;;;;;;8.80;5.20;;;12.50;99.90;;;;;;4941640;28;20043;-84
2021/10/30 11:15:10;;;;;;;6.90;4.03;;;12.50;99.90;;;;;;4914067;28;20110;-82
2021/10/30 11:17:49;;;;;;;8.63;4.28;;;12.50;99.90;;;;;;4924256;29;20059;-83
2021/10/30 11:20:16;;;;;;;4.82;3.58;;;12.50;99.90;;;;;;4913445;29;20036;-84
2021/10/30 11:22:53;;;;;;;6.05;4.03;;;12.50;99.90;;;;;;4931638;28;20032;-83
2021/10/30 11:25:20;;;;;;;11.57;4.38;;;12.50;99.90;;;;;;4932434;29;20039;-83
2021/10/30 11:27:52;;;;;;;8.43;4.82;;;12.40;99.90;;;;;;4938879;28;20067;-84
2021/10/30 11:30:39;;;;;;;5.88;4.30;;;12.40;99.90;;;;;;4900138;29;20035;-83
2021/10/30 11:33:22;;;;;;;;;;;12.40;99.90;;;;;;4923094;28;20075;-83
2021/10/30 11:36:04;;;;;;;7.38;5.28;;;12.30;99.90;;;;;;4938509;28;19922;-84
2021/10/30 11:38:31;;;;;;;8.23;4.47;;;12.30;99.90;;;;;;4910365;29;20028;-84
2021/10/30 11:40:57;;;;;;;7.60;4.20;;;12.30;99.90;;;;;;4909536;28;20027;-84
2021/10/30 11:43:25;;;;;;;6.95;4.47;;;12.30;99.90;;;;;;4929216;29;20076;-83
2021/10/30 11:45:52;;;;;;;11.25;5.82;;;12.30;99.90;;;;;;4917727;29;20863;-84
2021/10/30 11:48:18;;;;;;;10.10;5.40;;;12.30;99.90;;;;;;4910462;29;20036;-83
2021/10/30 11:50:56;;;;;;;8.25;5.20;;;12.30;99.90;;;;;;4924753;29;20099;-84
2021/10/30 11:53:28;;;;;;;7.85;4.78;;;12.30;99.90;;;;;;4926675;29;20035;-84
2021/10/30 11:55:54;;;;;;;7.22;4.70;;;12.30;99.90;;;;;;4929232;29;20472;-84
2021/10/30 11:58:34;;;;;;;5.80;4.25;;;12.30;99.90;;;;;;4924570;29;20020;-84
2021/10/30 12:01:00;;;;;;;8.32;5.30;;;12.30;99.90;;;;;;4932020;28;20435;-84
2021/10/30 12:03:33;;;;;;;7.68;5.38;;;12.30;99.90;;;;;;4922146;29;20028;-83
2021/10/30 12:05:59;;;;;;;8.40;4.72;;;12.30;99.90;;;;;;4916608;28;20035;-85
2021/10/30 12:08:25;;;;;;;8.48;5.10;;;12.30;99.90;;;;;;4945483;28;20110;-84
2021/10/30 12:10:50;;;;;;;9.10;4.15;;;12.30;99.90;;;;;;4915442;29;20055;-84
2021/10/30 12:13:16;;;;;;;4.82;3.95;;;12.30;99.90;;;;;;4912553;29;20041;-84
2021/10/30 12:16:01;;;;;;;6.10;3.42;;;12.30;99.90;;;;;;4898495;29;20114;-87
2021/10/30 12:18:28;;;;;;;6.63;4.88;;;12.30;99.90;;;;;;4925775;29;20039;-88
2021/10/30 12:20:55;;;;;;;5.22;3.72;;;12.30;99.90;;;;;;4930463;28;20044;-88
2021/10/30 12:23:21;;;;;;;7.25;4.07;;;12.40;99.90;;;;;;4918065;29;20035;-86
2021/10/30 12:25:46;;;;;;;10.93;4.55;;;12.30;99.90;;;;;;4915927;29;20027;-87
2021/10/30 12:28:15;;;;;;;4.00;2.88;;;12.30;99.90;;;;;;4909997;28;20062;-90
2021/10/30 12:30:41;;;;;;;6.90;4.68;;;12.50;99.90;;;;;;4900559;28;20608;-84
2021/10/30 12:33:09;;;;;;;6.95;3.97;;;12.40;99.90;;;;;;4919356;29;20118;-84
2021/10/30 12:35:35;;;;;;;8.32;4.22;;;12.40;99.90;;;;;;4928183;29;20046;-84
2021/10/30 12:38:17;;;;;;;5.97;4.30;;;12.40;99.90;;;;;;4915569;29;20047;-84
2021/10/30 12:40:42;;;;;;;7.70;4.40;;;12.40;99.90;;;;;;4945474;28;20631;-85
2021/10/30 12:43:36;;;;;;;5.63;3.88;;;12.50;99.90;;;;;;4918156;29;20123;-85
2021/10/30 12:46:03;;;;;;;6.43;4.18;;;12.50;99.90;;;;;;4932794;29;20027;-84